Time;durP1;ratioP1;P1;durP2;ratioP2;P2;SDS_P1;SDS_P2;PMS_P1;PMS_P2;Temp;Humidity;BMP_temperature;BMP_pressure;BME280_temperature;BME280_humidity;BME280_pressure;Samples;Min_cycle;Max_cycle;Signal;HPM_P1;HPM_P2
2023/06/25 00:02:13;;;;;;;5.40;3.60;;;14.30;99.90;;;;;;5070653;28;20036;-79
2023/06/25 00:04:39;;;;;;;4.00;3.33;;;14.40;99.90;;;;;;5088835;28;20032;-79
2023/06/25 00:07:05;;;;;;;4.85;4.00;;;14.40;99.90;;;;;;5088344;28;20382;-78
2023/06/25 00:09:30;;;;;;;4.97;3.90;;;14.40;99.90;;;;;;5089486;28;20016;-79
2023/06/25 00:11:56;;;;;;;5.32;4.38;;;14.30;99.90;;;;;;5075451;28;20032;-79
2023/06/25 00:14:22;;;;;;;6.38;4.38;;;14.20;99.90;;;;;;5093154;28;20473;-79
2023/06/25 00:16:47;;;;;;;4.10;3.70;;;14.20;99.90;;;;;;5074666;28;20089;-80
2023/06/25 00:19:17;;;;;;;5.45;4.78;;;14.20;99.90;;;;;;5074466;28;20051;-79
2023/06/25 00:21:43;;;;;;;6.13;5.00;;;14.20;99.90;;;;;;5075164;28;20508;-79
2023/06/25 00:24:09;;;;;;;6.85;4.40;;;14.00;99.90;;;;;;5093102;28;20028;-79
2023/06/25 00:26:34;;;;;;;4.85;3.63;;;14.10;99.90;;;;;;5092259;28;20031;-80
2023/06/25 00:29:00;;;;;;;6.93;4.30;;;14.00;99.90;;;;;;5092364;28;20129;-79
2023/06/25 00:31:25;;;;;;;4.70;3.42;;;14.10;99.90;;;;;;5074880;28;20074;-80
2023/06/25 00:33:51;;;;;;;8.73;4.82;;;14.00;99.90;;;;;;5092937;28;20032;-80
2023/06/25 00:36:17;;;;;;;6.45;4.03;;;14.10;99.90;;;;;;5074667;28;20028;-79
2023/06/25 00:38:42;;;;;;;5.43;4.13;;;14.10;99.90;;;;;;5092841;28;20039;-80
2023/06/25 00:41:12;;;;;;;6.63;4.57;;;14.10;99.90;;;;;;5092496;28;20028;-79
2023/06/25 00:43:41;;;;;;;4.53;3.70;;;14.10;99.90;;;;;;5074052;28;20103;-79
2023/06/25 00:46:15;;;;;;;6.53;3.97;;;14.10;99.90;;;;;;5074215;28;20119;-79
2023/06/25 00:48:45;;;;;;;5.53;3.85;;;14.10;99.90;;;;;;5074309;28;20127;-79
2023/06/25 00:51:14;;;;;;;4.50;3.95;;;14.10;99.90;;;;;;5074452;28;20372;-79
2023/06/25 00:53:40;;;;;;;4.45;3.95;;;14.00;99.90;;;;;;5074463;28;20071;-79
2023/06/25 00:56:06;;;;;;;4.97;3.75;;;14.00;99.90;;;;;;5074123;28;20149;-79
2023/06/25 00:58:34;;;;;;;7.78;3.97;;;14.00;99.90;;;;;;5073676;28;20101;-79
2023/06/25 01:01:02;;;;;;;4.75;3.78;;;14.00;99.90;;;;;;5073572;28;20377;-79
2023/06/25 01:03:37;;;;;;;6.03;5.20;;;13.80;99.90;;;;;;5073465;28;20377;-79
2023/06/25 01:06:09;;;;;;;7.75;4.55;;;13.80;99.90;;;;;;5073539;28;20397;-79
2023/06/25 01:08:38;;;;;;;6.55;4.35;;;13.60;99.90;;;;;;5091494;28;20110;-79
2023/06/25 01:11:05;;;;;;;5.13;3.67;;;13.60;99.90;;;;;;5074061;28;20020;-79
2023/06/25 01:13:31;;;;;;;5.97;4.32;;;13.60;99.90;;;;;;5092192;28;20488;-79
2023/06/25 01:15:56;;;;;;;5.93;4.75;;;13.60;99.90;;;;;;5092052;28;20081;-80
2023/06/25 01:18:23;;;;;;;8.00;4.22;;;13.60;99.90;;;;;;5074648;28;20020;-79
2023/06/25 01:20:56;;;;;;;5.97;3.83;;;13.60;99.90;;;;;;5074234;28;20038;-79
2023/06/25 01:23:22;;;;;;;7.05;3.90;;;13.60;99.90;;;;;;5073699;28;20520;-79
2023/06/25 01:25:48;;;;;;;8.57;4.75;;;13.50;99.90;;;;;;5091548;28;20111;-79
2023/06/25 01:28:16;;;;;;;7.38;4.50;;;13.40;99.90;;;;;;5091981;28;20038;-79
2023/06/25 01:30:42;;;;;;;6.85;4.05;;;13.30;99.90;;;;;;5074061;28;20023;-78
2023/06/25 01:33:07;;;;;;;4.82;4.07;;;13.20;99.90;;;;;;5092711;28;20099;-79
2023/06/25 01:35:34;;;;;;;5.88;4.10;;;13.20;99.90;;;;;;5073954;28;20486;-79
2023/06/25 01:38:00;;;;;;;6.85;4.85;;;13.20;99.90;;;;;;5092072;28;20123;-79
2023/06/25 01:40:25;;;;;;;5.35;4.57;;;13.20;99.90;;;;;;5091500;28;20531;-79
2023/06/25 01:42:52;;;;;;;6.40;4.38;;;13.10;99.90;;;;;;5072897;28;20036;-79
2023/06/25 01:45:18;;;;;;;5.13;4.03;;;13.10;99.90;;;;;;5073881;28;20039;-78
2023/06/25 01:47:44;;;;;;;5.72;4.00;;;13.20;99.90;;;;;;5092124;28;20139;-79
2023/06/25 01:50:11;;;;;;;5.03;3.80;;;13.10;99.90;;;;;;5092451;28;20499;-79
2023/06/25 01:52:37;;;;;;;4.88;3.70;;;13.10;99.90;;;;;;5073988;28;20028;-79
2023/06/25 01:55:04;;;;;;;5.65;3.92;;;13.00;99.90;;;;;;5073500;28;20028;-79
2023/06/25 01:57:29;;;;;;;8.02;4.20;;;13.10;99.90;;;;;;5072980;28;20024;-79
2023/06/25 01:59:55;;;;;;;5.38;3.88;;;13.00;99.90;;;;;;5074429;28;20043;-80
2023/06/25 02:02:21;;;;;;;8.23;4.18;;;12.90;99.90;;;;;;5075136;28;20031;-79
2023/06/25 02:04:48;;;;;;;4.32;3.92;;;13.00;99.90;;;;;;5092569;28;20027;-79
2023/06/25 02:07:14;;;;;;;7.28;3.90;;;12.90;99.90;;;;;;5091826;28;20071;-79
2023/06/25 02:09:39;;;;;;;9.98;4.78;;;13.00;99.90;;;;;;5091777;28;20477;-79
2023/06/25 02:12:05;;;;;;;9.63;4.15;;;12.90;99.90;;;;;;5072363;28;20032;-79
2023/06/25 02:14:32;;;;;;;5.53;4.00;;;12.90;99.90;;;;;;5091293;28;20310;-80
2023/06/25 02:16:58;;;;;;;4.57;3.95;;;12.90;99.90;;;;;;5091704;28;20012;-79
2023/06/25 02:19:24;;;;;;;7.93;3.72;;;12.90;99.90;;;;;;5091561;28;20384;-79
2023/06/25 02:21:49;;;;;;;7.13;3.97;;;12.80;99.90;;;;;;5073439;28;20044;-79
2023/06/25 02:24:15;;;;;;;5.15;3.85;;;12.80;99.90;;;;;;5073258;28;20024;-80
2023/06/25 02:26:41;;;;;;;6.25;3.95;;;12.90;99.90;;;;;;5073356;28;20372;-79
2023/06/25 02:29:07;;;;;;;7.05;4.63;;;12.80;99.90;;;;;;5072642;28;20020;-80
2023/06/25 02:31:32;;;;;;;9.75;4.90;;;12.70;99.90;;;;;;5072868;28;20376;-78
2023/06/25 02:33:58;;;;;;;6.38;4.43;;;12.70;99.90;;;;;;5091096;28;20113;-79
2023/06/25 02:36:24;;;;;;;7.40;4.20;;;12.70;99.90;;;;;;5073658;28;20651;-77
2023/06/25 02:38:49;;;;;;;6.63;4.45;;;12.70;99.90;;;;;;5072995;28;20092;-78
2023/06/25 02:41:15;;;;;;;4.90;4.03;;;12.80;99.90;;;;;;5072487;28;20100;-79
2023/06/25 02:43:41;;;;;;;4.40;3.55;;;12.80;99.90;;;;;;5090905;28;20024;-79
2023/06/25 02:46:06;;;;;;;5.45;3.97;;;12.80;99.90;;;;;;5073328;28;20426;-79
2023/06/25 02:48:32;;;;;;;4.65;4.03;;;12.80;99.90;;;;;;5091338;28;20047;-78
2023/06/25 02:50:57;;;;;;;6.78;4.50;;;12.80;99.90;;;;;;5073074;28;20020;-79
2023/06/25 02:53:23;;;;;;;4.85;4.10;;;12.80;99.90;;;;;;5072427;28;20028;-79
2023/06/25 02:55:49;;;;;;;6.00;4.57;;;12.80;99.90;;;;;;5090524;28;20027;-79
2023/06/25 02:58:14;;;;;;;10.02;4.00;;;12.70;99.90;;;;;;5091245;28;20059;-79
2023/06/25 03:00:40;;;;;;;6.95;4.35;;;12.70;99.90;;;;;;5091282;28;20024;-79
2023/06/25 03:03:06;;;;;;;4.70;3.65;;;12.70;99.90;;;;;;5090996;28;20024;-79
2023/06/25 03:05:32;;;;;;;4.85;3.88;;;12.70;99.90;;;;;;5072646;28;20036;-79
2023/06/25 03:07:59;;;;;;;5.25;3.50;;;12.60;99.90;;;;;;5072186;28;20043;-80
2023/06/25 03:10:28;;;;;;;10.27;3.85;;;12.50;99.90;;;;;;5090746;28;20032;-78
2023/06/25 03:12:53;;;;;;;5.45;4.05;;;12.30;99.90;;;;;;5072081;28;20111;-79
2023/06/25 03:15:19;;;;;;;6.85;4.68;;;12.30;99.90;;;;;;5091031;28;20115;-79
2023/06/25 03:17:45;;;;;;;6.53;4.10;;;12.30;99.90;;;;;;5090935;28;20032;-79
2023/06/25 03:20:11;;;;;;;6.70;4.80;;;12.30;99.90;;;;;;5090348;28;20055;-79
2023/06/25 03:22:37;;;;;;;6.97;4.38;;;12.30;99.90;;;;;;5091066;28;20555;-79
2023/06/25 03:25:03;;;;;;;13.43;5.32;;;12.20;99.90;;;;;;5072647;28;20111;-79
2023/06/25 03:27:31;;;;;;;7.80;4.60;;;12.30;99.90;;;;;;5089311;28;20035;-79
2023/06/25 03:29:56;;;;;;;5.05;3.72;;;12.30;99.90;;;;;;5090835;28;20132;-78
2023/06/25 03:32:22;;;;;;;5.43;3.85;;;12.20;99.90;;;;;;5090371;28;20524;-79
2023/06/25 03:34:48;;;;;;;6.35;4.22;;;12.20;99.90;;;;;;5072236;28;20031;-79
2023/06/25 03:37:13;;;;;;;5.20;4.20;;;12.10;99.90;;;;;;5072130;28;20476;-79
2023/06/25 03:39:39;;;;;;;5.10;4.28;;;12.10;99.90;;;;;;5090138;28;20062;-78
2023/06/25 03:42:05;;;;;;;6.95;4.45;;;12.10;99.90;;;;;;5071473;28;20048;-79
2023/06/25 03:44:30;;;;;;;7.75;4.85;;;12.00;99.90;;;;;;5074311;28;20271;-79
2023/06/25 03:46:56;;;;;;;8.38;4.28;;;12.00;99.90;;;;;;5076014;28;20035;-79
2023/06/25 03:49:22;;;;;;;12.98;5.47;;;12.10;99.90;;;;;;5076059;28;20442;-79
2023/06/25 03:51:47;;;;;;;5.78;4.00;;;12.20;99.90;;;;;;5094127;28;20488;-79
2023/06/25 03:54:13;;;;;;;7.97;4.85;;;12.20;99.90;;;;;;5076477;28;20035;-79
2023/06/25 03:56:38;;;;;;;5.90;4.15;;;12.30;99.90;;;;;;5075466;28;20502;-79
2023/06/25 03:59:04;;;;;;;10.27;5.38;;;12.20;99.90;;;;;;5093021;28;20081;-79
2023/06/25 04:01:30;;;;;;;5.18;4.15;;;12.20;99.90;;;;;;5093728;28;20055;-79
2023/06/25 04:03:55;;;;;;;6.45;4.40;;;12.20;99.90;;;;;;5075681;28;20055;-79
2023/06/25 04:06:21;;;;;;;6.97;4.45;;;12.30;99.90;;;;;;5094007;28;20075;-79
2023/06/25 04:08:47;;;;;;;6.25;4.07;;;12.40;99.90;;;;;;5076049;28;20036;-80
2023/06/25 04:11:12;;;;;;;9.10;4.18;;;12.50;99.90;;;;;;5077881;28;20028;-79
2023/06/25 04:13:38;;;;;;;7.20;4.97;;;12.60;99.90;;;;;;5096049;28;20175;-79
2023/06/25 04:16:07;;;;;;;5.10;3.97;;;12.70;99.90;;;;;;5096278;28;20161;-79
2023/06/25 04:18:32;;;;;;;4.78;4.30;;;12.80;99.90;;;;;;5095811;28;20027;-79
2023/06/25 04:20:58;;;;;;;6.35;4.15;;;12.80;99.90;;;;;;5095273;28;20028;-79
2023/06/25 04:23:24;;;;;;;8.57;4.60;;;12.80;99.90;;;;;;5095184;28;20476;-79
2023/06/25 04:25:49;;;;;;;8.52;5.28;;;12.80;99.90;;;;;;5114261;28;20023;-78
2023/06/25 04:28:15;;;;;;;6.25;4.47;;;12.80;99.90;;;;;;5095236;28;20039;-78
2023/06/25 04:30:41;;;;;;;14.65;4.97;;;12.90;99.90;;;;;;5095409;28;20016;-79
2023/06/25 04:33:07;;;;;;;7.93;4.60;;;13.10;99.90;;;;;;5095832;28;20487;-79
2023/06/25 04:35:33;;;;;;;5.18;4.30;;;13.20;99.90;;;;;;5114464;28;20023;-79
2023/06/25 04:37:59;;;;;;;5.93;4.43;;;13.30;99.90;;;;;;5113005;28;20530;-79
2023/06/25 04:40:25;;;;;;;6.22;4.70;;;13.40;99.90;;;;;;5093989;28;20685;-78
2023/06/25 04:42:51;;;;;;;7.35;4.20;;;13.50;99.90;;;;;;5111676;28;20084;-79
2023/06/25 04:45:17;;;;;;;4.53;3.70;;;13.70;99.90;;;;;;5093582;28;20023;-79
2023/06/25 04:47:42;;;;;;;4.90;4.25;;;14.20;99.90;;;;;;5093666;28;20046;-79
2023/06/25 04:50:08;;;;;;;5.45;3.92;;;14.80;99.90;;;;;;5093537;28;20491;-79
2023/06/25 04:52:34;;;;;;;3.88;3.10;;;15.20;99.90;;;;;;5093705;28;20031;-78
2023/06/25 04:54:59;;;;;;;4.80;3.90;;;15.50;99.90;;;;;;5111751;28;20391;-79
2023/06/25 04:57:25;;;;;;;3.53;3.22;;;16.40;99.90;;;;;;5110917;28;20383;-79
2023/06/25 04:59:51;;;;;;;4.70;3.20;;;17.20;99.90;;;;;;5093639;28;20024;-79
2023/06/25 05:02:16;;;;;;;3.75;3.45;;;17.40;99.90;;;;;;5111252;28;20032;-78
2023/06/25 05:04:42;;;;;;;3.67;3.13;;;17.20;99.90;;;;;;5111685;28;20023;-78
2023/06/25 05:07:07;;;;;;;5.22;3.50;;;16.80;99.90;;;;;;5091470;28;20054;-79
2023/06/25 05:09:33;;;;;;;4.57;3.78;;;16.50;99.90;;;;;;5110511;28;20034;-79
2023/06/25 05:11:59;;;;;;;4.28;3.15;;;16.20;99.90;;;;;;5110630;28;20107;-79
2023/06/25 05:14:25;;;;;;;5.57;3.72;;;16.00;99.90;;;;;;5092753;28;20031;-67
2023/06/25 05:16:50;;;;;;;6.30;3.53;;;15.90;99.90;;;;;;5110815;28;20023;-67
2023/06/25 05:19:16;;;;;;;4.50;3.40;;;15.80;99.90;;;;;;5111303;28;20035;-67
2023/06/25 05:21:42;;;;;;;7.10;3.97;;;15.80;99.90;;;;;;5111352;28;20120;-67
2023/06/25 05:24:07;;;;;;;4.25;3.85;;;15.90;99.90;;;;;;5111620;28;20028;-68
2023/06/25 05:26:33;;;;;;;5.78;3.42;;;16.10;99.90;;;;;;5111695;28;20035;-67
2023/06/25 05:28:59;;;;;;;4.25;3.53;;;16.10;99.90;;;;;;5110561;28;20097;-68
2023/06/25 05:31:25;;;;;;;5.68;4.13;;;16.10;99.90;;;;;;5111138;28;20011;-67
2023/06/25 05:33:51;;;;;;;4.30;3.70;;;16.10;99.90;;;;;;5110953;28;20035;-67
2023/06/25 05:36:18;;;;;;;6.35;3.65;;;16.10;99.90;;;;;;5110995;28;20019;-67
2023/06/25 05:38:43;;;;;;;5.95;3.63;;;16.10;99.90;;;;;;5111130;28;20020;-68
2023/06/25 05:41:09;;;;;;;3.92;3.50;;;16.20;99.90;;;;;;5111380;28;20513;-67
2023/06/25 05:43:35;;;;;;;10.60;4.30;;;16.20;99.90;;;;;;5110712;28;20031;-68
2023/06/25 05:46:00;;;;;;;6.03;4.60;;;16.40;99.90;;;;;;5110833;28;20095;-67
2023/06/25 05:48:26;;;;;;;7.28;4.75;;;16.50;99.90;;;;;;5110733;28;20058;-67
2023/06/25 05:50:52;;;;;;;6.15;4.68;;;16.70;99.90;;;;;;5110860;28;20084;-67
2023/06/25 05:53:18;;;;;;;6.38;4.25;;;16.80;99.90;;;;;;5110628;28;20468;-68
2023/06/25 05:55:44;;;;;;;7.82;4.35;;;17.10;99.90;;;;;;5110503;28;20082;-67
2023/06/25 05:58:10;;;;;;;6.40;4.45;;;17.30;99.90;;;;;;5110426;28;20428;-67
2023/06/25 06:00:35;;;;;;;8.90;5.70;;;17.40;99.90;;;;;;5110760;28;20550;-67
2023/06/25 06:03:01;;;;;;;9.65;5.60;;;17.40;99.90;;;;;;5110540;28;20038;-67
2023/06/25 06:05:27;;;;;;;8.70;5.45;;;17.60;99.90;;;;;;5110476;28;20020;-68
2023/06/25 06:07:52;;;;;;;6.65;4.65;;;18.10;99.90;;;;;;5089071;28;20131;-67
2023/06/25 06:10:18;;;;;;;6.53;5.40;;;18.80;99.90;;;;;;5089990;28;20024;-67
2023/06/25 06:12:44;;;;;;;8.82;5.90;;;19.20;99.90;;;;;;5088267;28;20472;-67
2023/06/25 06:15:10;;;;;;;8.73;6.00;;;19.20;99.90;;;;;;5088487;28;20020;-67
2023/06/25 06:17:35;;;;;;;8.23;5.40;;;19.20;99.90;;;;;;5090384;28;20028;-67
2023/06/25 06:20:01;;;;;;;10.15;5.20;;;19.30;99.90;;;;;;5089921;28;20028;-68
2023/06/25 06:22:27;;;;;;;6.78;5.13;;;19.70;99.90;;;;;;5089954;28;20020;-67
2023/06/25 06:24:53;;;;;;;7.28;5.63;;;19.90;99.90;;;;;;5089614;28;20028;-67
2023/06/25 06:27:18;;;;;;;7.28;5.35;;;19.80;99.90;;;;;;5087803;28;20087;-66
2023/06/25 06:29:44;;;;;;;10.50;6.00;;;19.60;99.90;;;;;;5088178;28;20027;-67
2023/06/25 06:32:09;;;;;;;7.90;5.35;;;19.40;99.90;;;;;;5089549;28;20020;-67
2023/06/25 06:34:36;;;;;;;7.80;6.00;;;19.40;99.90;;;;;;5089523;28;20020;-67
2023/06/25 06:37:01;;;;;;;5.57;4.90;;;19.40;99.90;;;;;;5089640;28;20142;-68
2023/06/25 06:39:27;;;;;;;7.10;5.35;;;19.80;99.90;;;;;;5089855;28;20119;-67
2023/06/25 06:41:52;;;;;;;5.68;5.07;;;20.20;99.90;;;;;;5089180;28;20024;-67
2023/06/25 06:44:19;;;;;;;5.38;4.88;;;21.00;99.90;;;;;;5089425;28;20469;-67
2023/06/25 06:46:45;;;;;;;6.00;4.13;;;22.10;99.90;;;;;;5089572;28;20055;-68
2023/06/25 06:49:12;;;;;;;5.93;3.88;;;23.80;96.50;;;;;;5089263;28;20174;-67
2023/06/25 06:51:38;;;;;;;4.35;3.95;;;25.70;90.80;;;;;;5089349;28;20039;-68
2023/06/25 06:54:04;;;;;;;3.38;2.95;;;27.40;79.40;;;;;;5089473;28;20028;-65
2023/06/25 06:56:30;;;;;;;3.35;2.83;;;27.90;72.50;;;;;;5048277;28;20025;-69
2023/06/25 06:58:56;;;;;;;6.07;3.35;;;28.40;71.50;;;;;;5049620;28;20038;-67
2023/06/25 07:01:22;;;;;;;4.70;3.35;;;28.90;68.20;;;;;;5056552;28;20020;-71
2023/06/25 07:03:47;;;;;;;3.17;2.85;;;29.10;64.80;;;;;;5051140;28;20024;-70
2023/06/25 07:06:13;;;;;;;3.50;3.20;;;29.30;65.20;;;;;;5069244;28;20580;-71
2023/06/25 07:08:39;;;;;;;4.55;2.63;;;30.20;64.20;;;;;;5087178;28;20483;-68
2023/06/25 07:11:04;;;;;;;4.45;3.08;;;30.70;61.60;;;;;;5087637;28;20166;-68
2023/06/25 07:13:31;;;;;;;3.63;2.85;;;30.50;60.40;;;;;;5087167;28;20266;-68
2023/06/25 07:15:57;;;;;;;3.33;3.03;;;30.20;59.20;;;;;;5094384;28;20023;-70
2023/06/25 07:18:22;;;;;;;3.03;2.75;;;29.70;59.80;;;;;;5107232;28;20023;-68
2023/06/25 07:20:48;;;;;;;3.55;2.63;;;30.50;59.50;;;;;;5107452;28;20081;-69
2023/06/25 07:23:14;;;;;;;2.35;2.15;;;31.10;58.10;;;;;;5102444;28;20031;-76
2023/06/25 07:25:40;;;;;;;2.65;2.45;;;31.10;58.20;;;;;;5088563;28;20048;-75
2023/06/25 07:28:05;;;;;;;2.83;2.38;;;31.60;56.30;;;;;;5069984;28;20039;-76
2023/06/25 07:30:32;;;;;;;2.95;2.40;;;32.00;56.20;;;;;;5088924;28;20016;-77
2023/06/25 07:32:57;;;;;;;2.75;2.28;;;32.10;55.80;;;;;;5070462;28;20400;-76
2023/06/25 07:35:23;;;;;;;4.30;2.70;;;31.40;55.90;;;;;;5068462;28;20027;-77
2023/06/25 07:37:49;;;;;;;5.05;2.50;;;31.30;57.20;;;;;;5070693;28;20119;-77
2023/06/25 07:40:15;;;;;;;3.33;3.03;;;31.50;56.90;;;;;;5085921;28;20065;-76
2023/06/25 07:42:40;;;;;;;3.40;2.75;;;30.80;54.00;;;;;;5088568;28;20556;-76
2023/06/25 07:45:06;;;;;;;3.15;2.30;;;30.60;55.60;;;;;;5089142;28;20057;-77
2023/06/25 07:47:32;;;;;;;3.25;2.95;;;30.80;56.50;;;;;;5088599;28;20081;-76
2023/06/25 07:49:58;;;;;;;3.08;2.38;;;31.30;53.70;;;;;;5070756;28;20024;-74
2023/06/25 07:52:23;;;;;;;1.92;1.83;;;31.20;54.00;;;;;;5097958;28;20163;-74
2023/06/25 07:54:49;;;;;;;2.22;1.95;;;31.20;54.60;;;;;;5109464;28;20030;-74
2023/06/25 07:57:15;;;;;;;11.85;3.22;;;31.70;55.10;;;;;;5108738;28;20024;-74
2023/06/25 07:59:42;;;;;;;2.33;2.13;;;31.20;55.40;;;;;;5109502;28;20447;-74
2023/06/25 08:02:07;;;;;;;3.33;2.60;;;31.50;54.60;;;;;;5109309;28;20046;-76
2023/06/25 08:04:33;;;;;;;4.55;2.80;;;32.00;53.60;;;;;;5108025;28;20336;-75
2023/06/25 08:06:59;;;;;;;3.33;2.50;;;31.90;52.20;;;;;;5083562;28;20050;-75
2023/06/25 08:09:24;;;;;;;4.13;2.15;;;32.10;51.90;;;;;;5087952;28;20036;-76
2023/06/25 08:11:50;;;;;;;2.45;2.25;;;32.30;53.80;;;;;;5088102;28;20059;-75
2023/06/25 08:14:15;;;;;;;4.18;2.83;;;31.70;55.60;;;;;;5084031;28;20024;-77
2023/06/25 08:16:41;;;;;;;3.28;2.00;;;31.50;53.60;;;;;;5067158;28;20052;-78
2023/06/25 08:19:07;;;;;;;3.53;2.33;;;32.10;53.20;;;;;;5073509;28;20028;-77
2023/06/25 08:21:32;;;;;;;3.95;2.53;;;32.70;53.70;;;;;;5087106;28;20024;-76
2023/06/25 08:23:58;;;;;;;2.65;2.45;;;32.60;53.30;;;;;;5087257;28;20078;-77
2023/06/25 08:26:24;;;;;;;3.42;2.25;;;32.40;52.30;;;;;;5088443;28;20025;-76
2023/06/25 08:28:50;;;;;;;2.53;2.33;;;32.00;51.10;;;;;;5081070;28;20451;-76
2023/06/25 08:31:19;;;;;;;2.72;2.53;;;32.50;51.90;;;;;;5067181;28;20056;-78
2023/06/25 08:33:44;;;;;;;2.75;2.03;;;32.70;51.70;;;;;;5070357;28;20035;-78
2023/06/25 08:36:10;;;;;;;1.98;1.77;;;32.80;50.10;;;;;;5072197;28;20021;-78
2023/06/25 08:38:36;;;;;;;4.05;1.70;;;32.80;50.60;;;;;;5071780;28;20481;-80
2023/06/25 08:41:02;;;;;;;2.88;2.40;;;33.00;52.40;;;;;;5070734;28;20036;-78
2023/06/25 08:43:28;;;;;;;3.17;2.78;;;32.90;50.20;;;;;;5069551;28;20477;-77
2023/06/25 08:45:54;;;;;;;4.38;2.65;;;32.50;49.70;;;;;;5087085;28;20172;-76
2023/06/25 08:48:26;;;;;;;3.97;2.08;;;31.70;51.20;;;;;;5080718;28;20036;-77
2023/06/25 08:51:02;;;;;;;2.10;2.00;;;31.70;53.00;;;;;;5070516;28;20021;-77
2023/06/25 08:53:28;;;;;;;3.00;1.92;;;31.80;51.20;;;;;;5069796;28;20036;-76
2023/06/25 08:55:56;;;;;;;3.53;2.85;;;31.90;54.00;;;;;;5069936;28;20347;-77
2023/06/25 08:58:22;;;;;;;3.97;2.55;;;32.10;52.10;;;;;;5071430;28;20013;-78
2023/06/25 09:00:48;;;;;;;2.72;2.53;;;32.20;52.70;;;;;;5069778;28;20029;-77
2023/06/25 09:03:14;;;;;;;2.08;1.95;;;32.00;51.70;;;;;;5071670;28;20020;-79
2023/06/25 09:05:50;;;;;;;4.32;2.38;;;32.20;53.70;;;;;;5072119;28;20040;-77
2023/06/25 09:08:16;;;;;;;2.75;2.25;;;32.30;51.50;;;;;;5091395;28;20040;-77
2023/06/25 09:10:42;;;;;;;3.03;2.70;;;31.20;53.10;;;;;;5072872;28;20016;-77
2023/06/25 09:13:07;;;;;;;2.55;2.35;;;30.70;53.00;;;;;;5090361;28;20491;-76
2023/06/25 09:15:33;;;;;;;2.63;2.42;;;30.30;54.40;;;;;;5073082;28;20469;-76
2023/06/25 09:17:58;;;;;;;2.50;2.30;;;30.50;56.10;;;;;;5072896;28;20027;-78
2023/06/25 09:20:24;;;;;;;2.72;2.53;;;30.10;55.60;;;;;;5072911;28;20020;-77
2023/06/25 09:22:54;;;;;;;2.38;2.17;;;29.60;56.40;;;;;;5074349;28;20043;-76
2023/06/25 09:25:30;;;;;;;3.05;2.50;;;29.80;56.40;;;;;;5072602;28;20031;-77
2023/06/25 09:27:58;;;;;;;3.03;2.33;;;30.50;53.80;;;;;;5090765;28;20112;-76
2023/06/25 09:30:24;;;;;;;3.65;2.97;;;30.40;53.90;;;;;;5072749;28;20055;-77
2023/06/25 09:32:50;;;;;;;5.35;2.65;;;30.40;55.70;;;;;;5090514;28;20524;-79
2023/06/25 09:35:25;;;;;;;5.50;2.88;;;29.50;54.40;;;;;;5090659;28;20128;-79
2023/06/25 09:37:51;;;;;;;2.75;2.55;;;28.40;57.40;;;;;;5108267;28;20023;-78
2023/06/25 09:40:17;;;;;;;2.75;2.55;;;28.40;57.20;;;;;;5111297;28;20065;-78
2023/06/25 09:42:44;;;;;;;2.70;2.50;;;29.00;56.90;;;;;;5110328;28;20089;-77
2023/06/25 09:45:14;;;;;;;2.85;2.38;;;29.60;58.70;;;;;;5085531;28;20058;-75
2023/06/25 09:47:43;;;;;;;2.88;2.45;;;30.00;54.90;;;;;;5110340;28;20033;-77
2023/06/25 09:50:31;;;;;;;3.30;3.00;;;30.00;55.20;;;;;;5110791;28;20019;-77
2023/06/25 09:52:59;;;;;;;3.13;2.85;;;30.20;55.80;;;;;;5092110;28;20270;-75
2023/06/25 09:55:27;;;;;;;2.75;2.55;;;30.00;55.50;;;;;;5098379;28;20035;-76
2023/06/25 09:57:53;;;;;;;3.25;2.95;;;29.80;56.70;;;;;;5085543;28;20507;-78
2023/06/25 10:00:21;;;;;;;4.88;3.03;;;29.60;56.10;;;;;;5089983;28;20030;-78
2023/06/25 10:02:48;;;;;;;3.83;2.78;;;29.70;56.50;;;;;;5071867;28;20050;-78
2023/06/25 10:05:13;;;;;;;2.88;2.55;;;29.80;57.10;;;;;;5089971;28;20024;-78
2023/06/25 10:07:40;;;;;;;4.05;2.80;;;29.60;56.80;;;;;;5088640;28;20040;-79
2023/06/25 10:10:06;;;;;;;3.00;2.42;;;29.70;56.00;;;;;;5091988;28;20480;-78
2023/06/25 10:12:35;;;;;;;2.90;2.70;;;30.40;56.80;;;;;;5085821;28;20437;-79
2023/06/25 10:15:03;;;;;;;4.22;3.10;;;30.50;55.60;;;;;;5090265;28;20012;-78
2023/06/25 10:17:28;;;;;;;3.00;2.55;;;30.50;57.30;;;;;;5071530;28;20465;-78
2023/06/25 10:19:59;;;;;;;3.30;2.92;;;30.60;54.20;;;;;;5089644;28;20088;-79
2023/06/25 10:22:26;;;;;;;3.08;2.55;;;30.00;55.30;;;;;;5071268;28;20388;-78
2023/06/25 10:24:53;;;;;;;2.97;2.65;;;29.80;55.40;;;;;;5089421;28;20112;-78
2023/06/25 10:27:29;;;;;;;3.05;2.72;;;29.00;56.10;;;;;;5089877;28;20023;-79
2023/06/25 10:29:56;;;;;;;2.70;2.17;;;28.60;56.20;;;;;;5089796;28;20350;-74
2023/06/25 10:32:28;;;;;;;3.97;3.03;;;29.30;57.60;;;;;;5089473;28;20027;-73
2023/06/25 10:34:56;;;;;;;3.25;2.50;;;29.90;56.20;;;;;;5089274;28;20028;-75
2023/06/25 10:37:27;;;;;;;4.28;2.97;;;29.80;55.70;;;;;;5089322;28;20019;-72
2023/06/25 10:40:04;;;;;;;3.72;2.58;;;29.40;56.90;;;;;;5089542;28;20036;-75
2023/06/25 10:42:31;;;;;;;4.00;2.83;;;29.90;58.90;;;;;;5071110;28;20059;-78
2023/06/25 10:44:57;;;;;;;2.53;2.33;;;30.00;56.00;;;;;;5071012;28;20027;-70
2023/06/25 10:47:23;;;;;;;3.13;2.80;;;30.10;55.50;;;;;;5089219;28;20028;-75
2023/06/25 10:49:48;;;;;;;2.65;2.45;;;30.70;55.80;;;;;;5071154;28;20435;-75
2023/06/25 10:52:14;;;;;;;3.72;2.30;;;31.10;54.90;;;;;;5107031;28;20051;-75
2023/06/25 10:54:39;;;;;;;2.85;2.63;;;31.30;56.00;;;;;;5109054;28;20019;-75
2023/06/25 10:57:14;;;;;;;2.45;2.25;;;31.40;54.00;;;;;;5109350;28;20034;-75
2023/06/25 10:59:43;;;;;;;4.70;2.25;;;31.90;54.50;;;;;;5109640;28;20051;-75
2023/06/25 11:02:18;;;;;;;3.08;2.45;;;32.30;53.70;;;;;;5109512;28;20205;-76
2023/06/25 11:04:52;;;;;;;2.75;2.55;;;32.90;53.60;;;;;;5109408;28;20024;-75
2023/06/25 11:07:19;;;;;;;2.40;2.20;;;32.50;53.20;;;;;;5090279;28;20151;-75
2023/06/25 11:09:54;;;;;;;3.13;2.50;;;32.10;54.60;;;;;;5089318;28;20089;-75
2023/06/25 11:12:19;;;;;;;2.28;2.08;;;32.10;52.90;;;;;;5107383;28;20425;-76
2023/06/25 11:14:45;;;;;;;2.92;2.58;;;32.70;53.00;;;;;;5087682;28;20031;-76
2023/06/25 11:17:14;;;;;;;5.53;2.67;;;32.30;51.70;;;;;;5105186;28;20020;-76
2023/06/25 11:19:40;;;;;;;4.35;2.50;;;31.70;52.50;;;;;;5088395;28;20093;-77
2023/06/25 11:22:09;;;;;;;2.97;2.42;;;31.70;56.50;;;;;;5070913;28;20476;-76
2023/06/25 11:24:36;;;;;;;2.00;1.80;;;32.70;55.50;;;;;;5088929;28;20485;-75
2023/06/25 11:27:02;;;;;;;2.92;2.45;;;33.50;51.80;;;;;;5070737;28;20364;-76
2023/06/25 11:29:41;;;;;;;4.28;2.10;;;34.10;52.50;;;;;;5089531;28;20039;-75
2023/06/25 11:32:09;;;;;;;2.83;2.42;;;34.60;52.20;;;;;;5087644;28;20103;-75
2023/06/25 11:34:44;;;;;;;2.50;2.30;;;34.80;50.00;;;;;;5070907;28;20028;-75
2023/06/25 11:37:14;;;;;;;2.72;2.47;;;33.60;51.70;;;;;;5088848;28;20020;-76
2023/06/25 11:39:43;;;;;;;2.60;2.40;;;32.90;51.70;;;;;;5088821;28;20103;-75
2023/06/25 11:42:14;;;;;;;2.90;2.45;;;33.10;53.80;;;;;;5088742;28;20031;-75
2023/06/25 11:44:39;;;;;;;3.15;2.72;;;33.40;51.10;;;;;;5088973;28;20039;-75
2023/06/25 11:47:05;;;;;;;2.78;2.50;;;32.90;51.40;;;;;;5088962;28;20036;-75
2023/06/25 11:49:31;;;;;;;3.35;2.70;;;31.90;52.00;;;;;;5088827;28;20020;-75
2023/06/25 11:51:58;;;;;;;2.30;2.20;;;32.10;52.60;;;;;;5096243;28;20104;-74
2023/06/25 11:54:24;;;;;;;2.47;2.25;;;32.50;52.10;;;;;;5091251;28;20031;-74
2023/06/25 11:56:49;;;;;;;3.55;2.78;;;33.10;52.90;;;;;;5095558;28;20027;-75
2023/06/25 11:59:15;;;;;;;2.53;2.33;;;34.30;54.20;;;;;;5092463;28;20382;-75
2023/06/25 12:01:41;;;;;;;2.95;2.75;;;35.30;51.00;;;;;;5088370;28;20073;-77
2023/06/25 12:04:06;;;;;;;3.53;2.38;;;35.80;49.20;;;;;;5070563;28;20544;-75
2023/06/25 12:06:32;;;;;;;2.60;2.40;;;36.00;48.20;;;;;;5090309;28;20052;-75
2023/06/25 12:08:58;;;;;;;2.47;2.22;;;36.40;51.40;;;;;;5098829;28;20063;-75
2023/06/25 12:11:23;;;;;;;4.68;2.63;;;36.60;50.50;;;;;;5111417;28;20205;-76
2023/06/25 12:13:49;;;;;;;3.00;2.80;;;35.50;49.50;;;;;;5112597;28;20031;-75
2023/06/25 12:16:15;;;;;;;3.33;3.03;;;34.50;49.70;;;;;;5095707;28;20437;-76
2023/06/25 12:18:40;;;;;;;2.45;2.25;;;34.60;49.90;;;;;;5091066;28;20491;-76
2023/06/25 12:21:06;;;;;;;5.15;2.67;;;34.50;50.80;;;;;;5096285;28;20081;-76
2023/06/25 12:23:32;;;;;;;3.60;2.60;;;34.70;50.30;;;;;;5095949;28;20051;-76
2023/06/25 12:25:57;;;;;;;4.68;3.20;;;34.90;52.30;;;;;;5085077;28;20058;-75
2023/06/25 12:28:23;;;;;;;2.60;2.40;;;35.30;49.10;;;;;;5107306;28;20137;-77
2023/06/25 12:30:48;;;;;;;3.03;2.72;;;35.40;50.80;;;;;;5108783;28;20050;-75
2023/06/25 12:33:14;;;;;;;3.25;2.42;;;35.90;48.50;;;;;;5100040;28;20035;-76
2023/06/25 12:35:40;;;;;;;2.83;2.38;;;35.00;50.20;;;;;;5073288;28;20020;-75
2023/06/25 12:38:05;;;;;;;3.67;3.05;;;34.90;49.50;;;;;;5092360;28;20021;-76
2023/06/25 12:40:31;;;;;;;3.10;2.78;;;35.60;49.70;;;;;;5074138;28;20036;-76
2023/06/25 12:42:57;;;;;;;4.15;3.08;;;36.50;48.70;;;;;;5082621;28;20028;-76